Meteo Giornale » Osservazioni meteo Stati Uniti (USA) » Fort Hood
ore: 17:55 - Osservazioni Meteo Fort Hood
Lat. 31° 6' N Lon. 97° 20' W Alt. 283 metri s.l.m.
37 °C
Sereno
Temp. 24 Ore
25 °C
38 °C
Sud/Sud-Est
14.8 Km/h
Dew point 16 °C
Umidità 28 %
Visibilità 10 Km
Il sole sorge alle ore 07:05
Il sole tramonta alle ore 19:54
| Data e Ora | Cielo e Fenomeni | T °C | DP °C | Um. % | Pres. hPa | Vis. km | Vento km/h | |
|---|---|---|---|---|---|---|---|---|
| Oggi h: 17:55 | Sereno | 37 | 16 | 28 | 1013 | 10 | S/SE 14.8 | |
| Oggi h: 16:55 | Sereno | 37 | 17 | 30 | 1013 | 10 | E/SE 9.3 | |
| Oggi h: 16:07 | Poco Nuvoloso | 37 | 17 | 30 | 1014 | 10 | S/SE 20.3 | |
| Oggi h: 15:55 | Sereno | 38 | 17 | 29 | 1014 | 14 | SE 16.7 | |
| Oggi h: 14:55 | Sereno | 38 | 16 | 27 | 1015 | 10 | SE 20.3 | |
| Oggi h: 13:55 | Sereno | 36 | 19 | 36 | 1016 | 10 | S/SO 9.3 | |
| Oggi h: 12:55 | Poco Nuvoloso | 36 | 19 | 36 | 1016 | 10 | S 16.7 | |
| Oggi h: 11:55 | Sereno | 34 | 20 | 43 | 1017 | 10 | SE 14.8 | |
| Oggi h: 10:55 | Sereno | 32 | 22 | 55 | 1017 | 10 | S/SO 9.3 | |
| Oggi h: 09:55 | Sereno | 30 | 23 | 66 | 1017 | 10 | SO 11.1 | |
| Oggi h: 08:55 | Sereno | 28 | 24 | 78 | 1016 | 14 | S 11.1 | |
| Oggi h: 07:55 | Sereno | 25 | 23 | 88 | 1016 | 10 | S 9.3 | |
| Oggi h: 06:55 | Sereno | 25 | 23 | 88 | 1016 | 10 | S 11.1 | |
| Oggi h: 05:55 | Sereno | 25 | 22 | 83 | 1015 | 10 | S 9.3 | |
| Oggi h: 04:55 | Sereno | 26 | 22 | 78 | 1015 | 10 | S 14.8 | |
| Oggi h: 03:55 | Sereno | 26 | 21 | 73 | 1015 | 10 | S/SE 11.1 | |
| Oggi h: 02:55 | Sereno | 27 | 21 | 69 | 1015 | 10 | S/SE 9.3 | |
| Oggi h: 01:55 | Sereno | 28 | 21 | 65 | 1015 | 10 | S 7.4 | |
| Oggi h: 00:55 | Sereno | 29 | 21 | 62 | 1015 | 10 | S/SE 7.4 | |
| Ieri h: 23:55 | Sereno | 30 | 21 | 58 | 1015 | 10 | S 16.7 | |
| Ieri h: 22:55 | Sereno | 31 | 20 | 52 | 1014 | 14 | S/SE 13 | |
| Ieri h: 21:55 | Sereno | 31 | 18 | 45 | 1014 | 10 | SE 11.1 | |
| Ieri h: 20:55 | Sereno | 32 | 18 | 43 | 1013 | 10 | SE 7.4 | |
| Ieri h: 19:55 | Sereno | 33 | 17 | 38 | 1012 | 14 | S/SE 9.3 | |
| Ieri h: 18:55 | Sereno | 36 | 17 | 32 | 1012 | 10 | S/SE 14.8 | |



